Pagina principale
METAR-TAF:

METAR-TAF

Aeroporti :

Aeroporto di Cefalonia

Cefalonia, Grecia

latitudine: 38-07N, longitudine: 020-30E, altezza: 19 m

Osservazione

Il bollettino è stato emesso 24 minuti fa, alle 18:50 UTC
Vento 11 kt da nord-ovest
Temperature 24°C
Umidità 83%
Pressione 1012 hPa
Visibilità 10 km o più
Poco nuvoloso ad un'altezza di 1600 ft

METAR: LGKF 231850Z 32011KT 9999 FEW016 24/21 Q1012

Ora: 22:14 (19:14 UTC)

Previsione

Il bollettino è stato emesso 2 ore e 14 minuti fa, alle 17:00 UTC
Previsione valida dal 23 alle 18 UTC al 24 alle 03 UTC
Vento 10 kt da nord-ovest
Visibilità 10 km o più
Poco nuvoloso ad un'altezza di 1800 ft
Nubi sparse ad un'altezza di 2000 ft
Probabilità 30%
dal 23 alle 22 UTC al 24 alle 03 UTC
Visibilità: 5000 m
Nubi sparse ad un'altezza di 1000 ft
foschia

TAF: LGKF 231700Z 2318/2403 31010KT 9999 FEW018 SCT020 PROB30 2322/2403 5000 BR SCT010

Osservazioni e previsioni meteorologiche di più di 4000 aeroporti (messaggi METAR e TAF).

Le stazioni disponibili sono rappresentate dai dischi gialli e rossi sulla carta.

Puntare il mouse per vedere il nome della stazione.

Clicca sopra per visualizzare le osservazioni e previsioni meteorologiche.

Per cambiare la mappa : fare clic sui pulsanti verdi con una croce nera per ingrandire, il pulsante verde con un trattino per diminuire, o sulla freccia verde per le mappe adiacenti.


METAR-TAF: